createdAt,value
2017-07-14T00:02:09.697Z,16.90
2017-07-14T00:04:36.596Z,16.80
2017-07-14T00:07:03.452Z,16.90
2017-07-14T00:09:30.359Z,16.90
2017-07-14T00:11:57.201Z,16.90
2017-07-14T00:14:26.488Z,16.90
2017-07-14T00:16:53.539Z,16.90
2017-07-14T00:19:20.427Z,16.90
2017-07-14T00:21:51.278Z,16.80
2017-07-14T00:24:18.574Z,16.70
2017-07-14T00:26:46.159Z,16.60
2017-07-14T00:29:16.377Z,16.60
2017-07-14T00:31:43.521Z,16.60
2017-07-14T00:34:12.222Z,16.60
2017-07-14T00:36:39.902Z,16.60
2017-07-14T00:39:06.808Z,16.60
2017-07-14T00:41:34.659Z,16.60
2017-07-14T00:44:04.527Z,16.50
2017-07-14T00:46:31.368Z,16.50
2017-07-14T00:48:58.311Z,16.50
2017-07-14T00:51:25.225Z,16.50
2017-07-14T00:53:52.066Z,16.60
2017-07-14T00:56:19.048Z,16.60
2017-07-14T00:58:45.876Z,16.50
2017-07-14T01:01:12.694Z,16.40
2017-07-14T01:03:39.671Z,16.20
2017-07-14T01:06:07.245Z,16.20
2017-07-14T01:08:34.104Z,16.20
2017-07-14T01:11:01.064Z,16.20
2017-07-14T01:13:27.881Z,16.20
2017-07-14T01:15:54.784Z,16.20
2017-07-14T01:18:21.712Z,16.10
2017-07-14T01:20:48.637Z,16.20
2017-07-14T01:23:15.494Z,16.20
2017-07-14T01:25:42.319Z,16.30
2017-07-14T01:28:09.250Z,16.30
2017-07-14T01:30:36.111Z,16.20
2017-07-14T01:33:02.947Z,16.20
2017-07-14T01:35:29.842Z,16.20
2017-07-14T01:37:56.703Z,16.20
2017-07-14T01:40:23.563Z,16.10
2017-07-14T01:42:50.636Z,16.10
2017-07-14T01:45:17.596Z,16.10
2017-07-14T01:47:44.441Z,16.10
2017-07-14T01:50:11.373Z,16.10
2017-07-14T01:52:38.235Z,16.10
2017-07-14T01:55:05.166Z,16.00
2017-07-14T01:57:32.082Z,16.10
2017-07-14T01:59:58.917Z,16.10
2017-07-14T02:02:26.485Z,15.90
2017-07-14T02:04:53.416Z,15.90
2017-07-14T02:07:23.422Z,15.80
2017-07-14T02:09:51.272Z,15.90
2017-07-14T02:12:18.246Z,15.60
2017-07-14T02:14:45.833Z,15.10
2017-07-14T02:17:12.747Z,15.00
2017-07-14T02:19:39.599Z,14.80
2017-07-14T02:22:07.184Z,14.00
2017-07-14T02:24:34.088Z,14.00
2017-07-14T02:27:00.997Z,13.90
2017-07-14T02:29:27.887Z,14.10
2017-07-14T02:31:55.529Z,14.50
2017-07-14T02:34:22.375Z,14.50
2017-07-14T02:36:49.284Z,14.70
2017-07-14T02:39:16.110Z,14.80
2017-07-14T02:41:42.966Z,14.80
2017-07-14T02:44:09.860Z,14.80
2017-07-14T02:46:36.702Z,14.80
2017-07-14T02:49:03.537Z,14.90
2017-07-14T02:51:30.476Z,15.00
2017-07-14T02:53:57.318Z,15.00
2017-07-14T02:56:24.195Z,15.00
2017-07-14T02:58:51.847Z,15.00
2017-07-14T03:01:18.692Z,15.00
2017-07-14T03:03:45.524Z,15.00
2017-07-14T03:06:12.482Z,15.00
2017-07-14T03:08:39.389Z,15.00
2017-07-14T03:11:06.211Z,15.00
2017-07-14T03:13:33.179Z,14.90
2017-07-14T03:16:00.085Z,14.90
2017-07-14T03:18:27.773Z,14.70
2017-07-14T03:20:54.693Z,14.70
2017-07-14T03:23:22.352Z,14.80
2017-07-14T03:25:49.294Z,14.70
2017-07-14T03:28:16.884Z,14.70
2017-07-14T03:30:43.727Z,14.70
2017-07-14T03:33:10.695Z,14.70
2017-07-14T03:35:37.520Z,14.80
2017-07-14T03:38:04.426Z,14.80
2017-07-14T03:40:31.259Z,14.80
2017-07-14T03:42:58.169Z,14.80
2017-07-14T03:45:25.093Z,14.80
2017-07-14T03:47:51.940Z,14.80
2017-07-14T03:50:18.774Z,14.70
2017-07-14T03:52:46.395Z,14.80
2017-07-14T03:55:13.240Z,14.80
2017-07-14T03:57:40.209Z,14.90
2017-07-14T04:00:07.813Z,14.90
2017-07-14T04:02:34.664Z,14.90
2017-07-14T04:05:05.441Z,14.90
2017-07-14T04:07:32.276Z,14.90
2017-07-14T04:09:59.178Z,14.90
2017-07-14T04:12:26.008Z,15.00
2017-07-14T04:14:52.867Z,15.00
2017-07-14T04:17:19.760Z,15.10
2017-07-14T04:19:46.600Z,15.20
2017-07-14T04:22:13.426Z,15.20
2017-07-14T04:24:40.327Z,15.20
2017-07-14T04:27:07.221Z,15.20
2017-07-14T04:29:48.881Z,15.20
2017-07-14T04:32:16.669Z,15.20
2017-07-14T04:34:43.711Z,15.30
2017-07-14T04:37:10.607Z,15.30
2017-07-14T04:39:38.167Z,15.40
2017-07-14T04:42:05.800Z,15.50
2017-07-14T04:44:32.706Z,15.50
2017-07-14T04:46:59.893Z,16.00
2017-07-14T04:49:26.727Z,17.40
2017-07-14T04:51:53.640Z,18.10
2017-07-14T04:54:20.466Z,18.00
2017-07-14T04:56:47.361Z,18.10
2017-07-14T04:59:14.267Z,18.20
2017-07-14T05:01:41.204Z,17.80
2017-07-14T05:04:08.775Z,17.90
2017-07-14T05:06:35.604Z,17.90
2017-07-14T05:09:03.434Z,17.60
2017-07-14T05:11:30.335Z,17.60
2017-07-14T05:13:57.171Z,17.90
2017-07-14T05:16:24.070Z,18.50
2017-07-14T05:18:50.898Z,18.40
2017-07-14T05:21:17.715Z,18.40
2017-07-14T05:23:44.594Z,18.20
2017-07-14T05:26:11.538Z,18.10
2017-07-14T05:28:38.491Z,18.10
2017-07-14T05:31:05.414Z,18.10
2017-07-14T05:33:32.261Z,18.10
2017-07-14T05:35:59.275Z,18.00
2017-07-14T05:38:26.227Z,18.00
2017-07-14T05:40:53.115Z,18.00
2017-07-14T05:43:19.982Z,18.00
2017-07-14T05:45:46.891Z,18.10
2017-07-14T05:48:13.747Z,18.10
2017-07-14T05:50:40.650Z,18.20
2017-07-14T05:53:07.579Z,18.10
2017-07-14T05:55:35.138Z,18.00
2017-07-14T05:58:02.720Z,17.90
2017-07-14T06:00:29.669Z,17.90
2017-07-14T06:02:56.518Z,18.00
2017-07-14T06:05:23.361Z,18.10
2017-07-14T06:07:50.279Z,18.40
2017-07-14T06:10:17.886Z,19.00
2017-07-14T06:12:44.732Z,19.00
2017-07-14T06:15:11.632Z,19.20
2017-07-14T06:17:38.464Z,19.00
2017-07-14T06:20:05.304Z,18.90
2017-07-14T06:22:32.282Z,18.80
2017-07-14T06:24:59.208Z,18.80
2017-07-14T06:27:26.828Z,18.50
2017-07-14T06:29:53.742Z,18.50
2017-07-14T06:32:20.570Z,18.50
2017-07-14T06:34:48.563Z,18.40
2017-07-14T06:37:15.511Z,18.30
2017-07-14T06:39:42.349Z,18.30
2017-07-14T06:42:09.267Z,18.40
2017-07-14T06:44:36.889Z,18.10
2017-07-14T06:47:03.733Z,18.10
2017-07-14T06:49:30.740Z,18.00
2017-07-14T06:51:57.559Z,17.90
2017-07-14T06:54:24.488Z,17.80
2017-07-14T06:56:51.451Z,17.70
2017-07-14T06:59:18.299Z,17.50
2017-07-14T07:01:45.149Z,17.40
2017-07-14T07:04:12.133Z,17.40
2017-07-14T07:06:38.975Z,17.40
2017-07-14T07:09:05.800Z,17.30
2017-07-14T07:11:32.704Z,17.40
2017-07-14T07:13:59.524Z,17.50
2017-07-14T07:16:27.512Z,17.50
2017-07-14T07:18:54.436Z,17.50
2017-07-14T07:21:21.289Z,17.60
2017-07-14T07:23:48.217Z,17.80
2017-07-14T07:26:15.108Z,17.90
2017-07-14T07:28:42.087Z,18.20
2017-07-14T07:31:10.015Z,18.30
2017-07-14T07:33:37.059Z,18.40
2017-07-14T07:36:04.012Z,18.40
2017-07-14T07:38:33.092Z,18.40
2017-07-14T07:41:04.361Z,18.40
2017-07-14T07:43:33.972Z,18.90
2017-07-14T07:46:03.392Z,19.60
2017-07-14T07:48:37.617Z,19.60
2017-07-14T07:51:05.962Z,19.60
2017-07-14T07:53:34.399Z,19.80
2017-07-14T07:56:07.766Z,20.10
2017-07-14T07:58:44.745Z,21.00
2017-07-14T08:01:14.238Z,21.00
2017-07-14T08:03:42.689Z,21.00
2017-07-14T08:06:17.967Z,21.40
2017-07-14T08:11:41.613Z,22.80
2017-07-14T08:14:15.570Z,23.00
2017-07-14T08:16:56.617Z,24.40
2017-07-14T08:19:39.401Z,24.40
2017-07-14T08:22:18.264Z,24.10
2017-07-14T08:25:02.436Z,23.80
2017-07-14T08:27:41.113Z,23.80
2017-07-14T08:30:21.311Z,23.60
2017-07-14T08:32:51.381Z,23.40
2017-07-14T08:35:19.785Z,23.20
2017-07-14T08:37:48.059Z,23.30
2017-07-14T08:40:17.319Z,23.80
2017-07-14T08:42:46.283Z,24.20
2017-07-14T08:45:14.661Z,24.10
2017-07-14T08:47:43.089Z,24.20
2017-07-14T08:50:11.413Z,24.10
2017-07-14T08:52:39.688Z,23.90
2017-07-14T08:55:08.140Z,23.60
2017-07-14T08:57:36.548Z,23.30
2017-07-14T09:00:05.023Z,23.20
2017-07-14T09:02:33.372Z,23.30
2017-07-14T09:05:01.761Z,23.20
2017-07-14T09:07:30.172Z,23.30
2017-07-14T09:09:58.705Z,23.20
2017-07-14T09:12:27.148Z,23.00
2017-07-14T09:14:54.913Z,22.70
2017-07-14T09:17:21.741Z,22.60
2017-07-14T09:19:48.563Z,22.30
2017-07-14T09:22:15.580Z,21.90
2017-07-14T09:24:42.455Z,21.80
2017-07-14T09:27:09.299Z,21.80
2017-07-14T09:29:36.241Z,21.80
2017-07-14T09:32:03.092Z,21.80
2017-07-14T09:34:29.935Z,21.80
2017-07-14T09:36:56.844Z,21.80
2017-07-14T09:39:24.089Z,21.80
2017-07-14T09:41:51.660Z,21.90
2017-07-14T09:44:18.564Z,21.90
2017-07-14T09:46:45.397Z,21.70
2017-07-14T09:49:12.292Z,21.70
2017-07-14T09:51:39.142Z,21.60
2017-07-14T09:54:06.028Z,21.60
2017-07-14T09:56:32.935Z,21.80
2017-07-14T09:58:59.845Z,22.00
2017-07-14T10:01:26.784Z,22.20
2017-07-14T10:03:53.745Z,22.30
2017-07-14T10:06:20.578Z,22.30
2017-07-14T10:08:47.487Z,22.20
2017-07-14T10:11:14.303Z,22.10
2017-07-14T10:13:46.560Z,22.00
2017-07-14T10:16:18.379Z,21.80
2017-07-14T10:18:46.888Z,21.70
2017-07-14T10:21:13.743Z,21.70
2017-07-14T10:23:41.307Z,22.00
2017-07-14T10:26:08.226Z,22.00
2017-07-14T10:28:35.063Z,22.30
2017-07-14T10:31:01.911Z,22.60
2017-07-14T10:33:32.378Z,22.90
2017-07-14T10:36:12.706Z,23.00
2017-07-14T10:38:40.122Z,23.20
2017-07-14T10:41:11.801Z,23.60
2017-07-14T10:43:40.072Z,24.20
2017-07-14T10:46:07.874Z,24.70
2017-07-14T10:48:36.620Z,24.80
2017-07-14T10:51:04.948Z,25.00
2017-07-14T10:53:32.848Z,25.20
2017-07-14T10:56:00.506Z,25.60
2017-07-14T10:58:27.387Z,25.50
2017-07-14T11:00:55.293Z,25.30
2017-07-14T11:03:23.166Z,24.60
2017-07-14T11:05:50.808Z,24.40
2017-07-14T11:08:31.097Z,24.40
2017-07-14T11:10:58.927Z,24.20
2017-07-14T11:13:25.771Z,24.00
2017-07-14T11:15:53.071Z,24.20
2017-07-14T11:18:19.996Z,24.30
2017-07-14T11:20:46.836Z,24.30
2017-07-14T11:23:14.402Z,24.10
2017-07-14T11:25:42.127Z,24.00
2017-07-14T11:28:08.971Z,24.00
2017-07-14T11:30:35.803Z,24.00
2017-07-14T11:33:02.753Z,24.20
2017-07-14T11:35:29.583Z,25.10
2017-07-14T11:37:56.415Z,25.80
2017-07-14T11:40:23.278Z,26.40
2017-07-14T11:42:50.117Z,26.90
2017-07-14T11:45:17.072Z,26.90
2017-07-14T11:47:43.922Z,26.70
2017-07-14T11:50:10.754Z,26.80
2017-07-14T11:52:37.692Z,26.80
2017-07-14T11:55:04.520Z,26.50
2017-07-14T11:57:31.447Z,26.60
2017-07-14T11:59:59.131Z,27.00
2017-07-14T12:02:26.037Z,27.00
2017-07-14T12:04:52.848Z,27.20
2017-07-14T12:07:19.680Z,27.50
2017-07-14T12:09:46.569Z,27.80
2017-07-14T12:12:13.471Z,27.90
2017-07-14T12:14:40.294Z,27.90
2017-07-14T12:17:07.121Z,27.80
2017-07-14T12:19:34.757Z,27.80
2017-07-14T12:22:01.659Z,27.70
2017-07-14T12:24:28.478Z,27.70
2017-07-14T12:26:55.386Z,27.70
2017-07-14T12:29:22.351Z,27.40
2017-07-14T12:31:49.192Z,27.50
2017-07-14T12:34:16.107Z,27.70
2017-07-14T12:36:43.017Z,27.80
2017-07-14T12:39:10.743Z,27.70
2017-07-14T12:41:37.643Z,27.70
2017-07-14T12:44:04.604Z,27.50
2017-07-14T12:46:31.468Z,27.60
2017-07-14T12:48:58.800Z,27.60
2017-07-14T12:51:25.703Z,27.20
2017-07-14T12:53:52.637Z,27.00
2017-07-14T12:56:19.564Z,26.40
2017-07-14T12:58:46.410Z,26.00
2017-07-14T13:01:13.248Z,25.60
2017-07-14T13:03:40.150Z,25.40
2017-07-14T13:06:07.724Z,25.80
2017-07-14T13:08:34.643Z,25.70
2017-07-14T13:11:01.480Z,26.30
2017-07-14T13:13:28.341Z,26.80
2017-07-14T13:15:56.020Z,26.70
2017-07-14T13:18:22.867Z,26.70
2017-07-14T13:20:49.705Z,26.80
2017-07-14T13:23:16.682Z,26.70
2017-07-14T13:25:43.523Z,26.60
2017-07-14T13:28:10.375Z,26.80
2017-07-14T13:30:37.289Z,27.10
2017-07-14T13:33:04.161Z,27.30
2017-07-14T13:35:31.124Z,27.10
2017-07-14T13:37:58.057Z,26.60
2017-07-14T13:40:24.882Z,26.40
2017-07-14T13:42:51.819Z,26.10
2017-07-14T13:45:18.654Z,25.90
2017-07-14T13:47:45.598Z,25.70
2017-07-14T13:50:12.514Z,25.60
2017-07-14T13:52:39.369Z,25.60
2017-07-14T13:55:07.016Z,25.50
2017-07-14T13:57:34.831Z,25.50
2017-07-14T14:00:02.682Z,25.70
2017-07-14T14:02:29.587Z,26.00
2017-07-14T14:04:56.433Z,26.30
2017-07-14T14:07:23.379Z,26.60
2017-07-14T14:09:50.228Z,26.30
2017-07-14T14:12:17.081Z,25.90
2017-07-14T14:14:43.996Z,25.90
2017-07-14T14:17:10.908Z,26.00
2017-07-14T14:19:37.777Z,26.00
2017-07-14T14:22:04.737Z,26.40
2017-07-14T14:24:31.568Z,26.30
2017-07-14T14:26:58.432Z,26.20
2017-07-14T14:29:25.402Z,26.10
2017-07-14T14:31:53.042Z,25.90
2017-07-14T14:34:19.891Z,25.90
2017-07-14T14:36:46.815Z,25.70
2017-07-14T14:39:13.645Z,25.60
2017-07-14T14:41:40.491Z,25.50
2017-07-14T14:44:07.421Z,25.30
2017-07-14T14:46:37.236Z,25.00
2017-07-14T14:49:05.496Z,25.00
2017-07-14T14:51:32.996Z,25.00
2017-07-14T14:53:59.932Z,24.80
2017-07-14T14:56:26.840Z,24.80
2017-07-14T14:58:54.500Z,24.80
2017-07-14T15:01:22.055Z,24.90
2017-07-14T15:03:49.610Z,25.10
2017-07-14T15:06:16.512Z,25.00
2017-07-14T15:08:43.531Z,25.10
2017-07-14T15:11:14.535Z,25.30
2017-07-14T15:13:46.758Z,25.60
2017-07-14T15:16:18.955Z,25.70
2017-07-14T15:18:46.230Z,25.70
2017-07-14T15:21:13.135Z,25.60
2017-07-14T15:23:39.971Z,25.60
2017-07-14T15:26:06.774Z,25.50
2017-07-14T15:28:33.677Z,25.50
2017-07-14T15:31:00.503Z,25.50
2017-07-14T15:33:27.325Z,25.50
2017-07-14T15:35:54.956Z,25.70
2017-07-14T15:38:21.771Z,25.70
2017-07-14T15:40:48.650Z,25.80
2017-07-14T15:43:15.624Z,26.00
2017-07-14T15:45:42.556Z,26.10
2017-07-14T15:48:10.133Z,26.10
2017-07-14T15:50:37.015Z,26.10
2017-07-14T15:53:03.885Z,26.20
2017-07-14T15:55:30.790Z,26.30
2017-07-14T15:57:57.623Z,26.50
2017-07-14T16:00:24.933Z,26.50
2017-07-14T16:02:52.927Z,26.30
2017-07-14T16:05:20.491Z,26.20
2017-07-14T16:07:48.240Z,26.10
2017-07-14T16:10:16.004Z,25.90
2017-07-14T16:12:42.891Z,25.90
2017-07-14T16:15:09.912Z,25.80
2017-07-14T16:17:37.503Z,25.70
2017-07-14T16:20:04.331Z,25.70
2017-07-14T16:22:31.232Z,25.80
2017-07-14T16:24:58.053Z,25.80
2017-07-14T16:27:24.883Z,25.80
2017-07-14T16:29:51.842Z,25.70
2017-07-14T16:32:18.717Z,25.80
2017-07-14T16:34:45.564Z,25.90
2017-07-14T16:37:12.579Z,25.90
2017-07-14T16:39:39.404Z,25.90
2017-07-14T16:42:06.289Z,25.90
2017-07-14T16:44:33.259Z,25.60
2017-07-14T16:47:00.896Z,25.60
2017-07-14T16:49:27.719Z,25.60
2017-07-14T16:51:54.646Z,25.50
2017-07-14T16:54:21.486Z,25.30
2017-07-14T16:56:48.328Z,25.20
2017-07-14T16:59:15.235Z,25.00
2017-07-14T17:01:42.071Z,24.80
2017-07-14T17:04:08.948Z,24.60
2017-07-14T17:06:36.413Z,24.50
2017-07-14T17:09:03.416Z,24.40
2017-07-14T17:11:30.717Z,24.30
2017-07-14T17:14:06.084Z,24.20
2017-07-14T17:16:40.940Z,24.20
2017-07-14T17:19:16.193Z,24.10
2017-07-14T17:21:50.737Z,24.00
2017-07-14T17:24:26.006Z,24.00
2017-07-14T17:27:02.158Z,24.00
2017-07-14T17:29:37.377Z,23.90
2017-07-14T17:32:13.532Z,23.90
2017-07-14T17:34:48.469Z,23.80
2017-07-14T17:37:24.162Z,23.80
2017-07-14T17:40:00.417Z,23.60
2017-07-14T17:42:36.894Z,23.50
2017-07-14T17:45:13.413Z,23.50
2017-07-14T17:47:48.792Z,23.40
2017-07-14T17:50:25.964Z,23.10
2017-07-14T17:53:02.308Z,22.90
2017-07-14T17:55:39.383Z,22.50
2017-07-14T17:58:14.096Z,22.50
2017-07-14T18:00:51.115Z,21.40
2017-07-14T18:03:27.888Z,21.30
2017-07-14T18:06:04.368Z,21.10
2017-07-14T18:08:38.291Z,20.90
2017-07-14T18:11:18.388Z,20.40
2017-07-14T18:13:59.110Z,19.90
2017-07-14T18:16:32.812Z,19.90
2017-07-14T18:19:07.468Z,19.80
2017-07-14T18:21:34.919Z,19.50
2017-07-14T18:24:01.789Z,19.00
2017-07-14T18:26:29.785Z,18.70
2017-07-14T18:28:59.910Z,18.40
2017-07-14T18:31:28.912Z,18.30
2017-07-14T18:33:56.675Z,18.20
2017-07-14T18:36:26.658Z,18.10
2017-07-14T18:38:53.577Z,17.90
2017-07-14T18:41:20.440Z,17.90
2017-07-14T18:43:47.287Z,17.90
2017-07-14T18:46:14.230Z,18.00
2017-07-14T18:48:41.187Z,18.00
2017-07-14T18:51:12.112Z,17.90
2017-07-14T18:53:40.423Z,17.80
2017-07-14T18:56:07.481Z,17.80
2017-07-14T18:58:36.884Z,17.90
2017-07-14T19:01:04.903Z,17.70
2017-07-14T19:03:36.454Z,17.70
2017-07-14T19:06:05.456Z,17.80
2017-07-14T19:08:33.711Z,17.90
2017-07-14T19:11:00.900Z,18.00
2017-07-14T19:13:29.829Z,18.00
2017-07-14T19:15:59.858Z,18.10
2017-07-14T19:18:28.764Z,18.20
2017-07-14T19:20:55.773Z,18.30
2017-07-14T19:23:29.465Z,18.30
2017-07-14T19:25:57.231Z,18.30
2017-07-14T19:28:27.357Z,18.40
2017-07-14T19:31:01.508Z,18.40
2017-07-14T19:33:32.447Z,18.30
2017-07-14T19:36:05.939Z,18.30
2017-07-14T19:38:35.360Z,18.30
2017-07-14T19:41:06.601Z,18.10
2017-07-14T19:43:40.232Z,18.10
2017-07-14T19:46:12.908Z,18.00
2017-07-14T19:48:39.956Z,17.80
2017-07-14T19:51:10.609Z,17.70
2017-07-14T19:53:37.902Z,17.60
2017-07-14T19:56:08.557Z,17.70
2017-07-14T19:58:37.594Z,17.60
2017-07-14T20:01:05.325Z,17.60
2017-07-14T20:03:35.014Z,17.60
2017-07-14T20:06:03.550Z,17.70
2017-07-14T20:08:32.645Z,17.70
2017-07-14T20:11:03.019Z,17.80
2017-07-14T20:13:30.149Z,17.70
2017-07-14T20:15:57.107Z,17.80
2017-07-14T20:18:24.045Z,17.70
2017-07-14T20:20:50.892Z,17.80
2017-07-14T20:23:17.728Z,17.80
2017-07-14T20:25:48.089Z,17.90
2017-07-14T20:28:18.459Z,17.90
2017-07-14T20:30:50.404Z,17.90
2017-07-14T20:33:17.527Z,17.90
2017-07-14T20:35:45.229Z,17.90
2017-07-14T20:38:13.159Z,17.90
2017-07-14T20:40:42.116Z,18.00
2017-07-14T20:43:12.360Z,18.00
2017-07-14T20:45:39.352Z,18.00
2017-07-14T20:48:06.180Z,18.00
2017-07-14T20:50:34.241Z,18.00
2017-07-14T20:53:01.147Z,18.00
2017-07-14T20:55:34.988Z,17.90
2017-07-14T20:58:06.115Z,17.90
2017-07-14T21:00:36.444Z,17.90
2017-07-14T21:03:03.348Z,17.90
2017-07-14T21:05:31.260Z,17.90
2017-07-14T21:08:00.328Z,17.80
2017-07-14T21:10:27.340Z,17.90
2017-07-14T21:12:55.230Z,17.90
2017-07-14T21:15:23.212Z,17.90
2017-07-14T21:17:50.191Z,17.90
2017-07-14T21:20:17.031Z,17.90
2017-07-14T21:22:44.978Z,17.80
2017-07-14T21:25:12.073Z,17.80
2017-07-14T21:27:39.203Z,17.80
2017-07-14T21:30:06.138Z,17.80
2017-07-14T21:32:33.060Z,17.90
2017-07-14T21:34:59.947Z,17.80
2017-07-14T21:37:27.561Z,17.80
2017-07-14T21:40:01.543Z,17.80
2017-07-14T21:42:31.925Z,17.80
2017-07-14T21:45:00.527Z,17.70
2017-07-14T21:47:29.018Z,17.80
2017-07-14T21:49:56.710Z,17.60
2017-07-14T21:52:24.456Z,17.60
2017-07-14T21:54:51.447Z,17.60
2017-07-14T21:57:18.431Z,17.60
2017-07-14T21:59:46.083Z,17.50
2017-07-14T22:02:13.500Z,17.50
2017-07-14T22:04:40.391Z,17.50
2017-07-14T22:07:08.196Z,17.50
2017-07-14T22:09:36.126Z,17.50
2017-07-14T22:12:03.061Z,17.50
2017-07-14T22:14:29.993Z,17.50
2017-07-14T22:16:57.868Z,17.50
2017-07-14T22:19:25.218Z,17.40
2017-07-14T22:21:54.653Z,17.40
2017-07-14T22:24:25.511Z,17.40
2017-07-14T22:26:52.677Z,17.40
2017-07-14T22:29:19.610Z,17.40
2017-07-14T22:31:48.931Z,17.30
2017-07-14T22:34:15.868Z,17.30
2017-07-14T22:36:43.911Z,17.30
2017-07-14T22:39:10.848Z,17.30
2017-07-14T22:41:38.753Z,17.30
2017-07-14T22:44:05.688Z,17.20
2017-07-14T22:46:38.021Z,17.10
2017-07-14T22:49:08.422Z,17.10
2017-07-14T22:51:35.527Z,17.10
2017-07-14T22:54:03.151Z,17.10
2017-07-14T22:56:29.980Z,17.10
2017-07-14T22:58:56.904Z,17.10
2017-07-14T23:01:24.093Z,17.00
2017-07-14T23:03:51.244Z,17.00
2017-07-14T23:06:27.276Z,16.90
2017-07-14T23:08:55.751Z,16.80
2017-07-14T23:11:23.076Z,16.80
2017-07-14T23:13:52.458Z,16.70
2017-07-14T23:16:20.175Z,16.70
2017-07-14T23:18:53.520Z,16.60
2017-07-14T23:21:21.676Z,16.60
2017-07-14T23:23:48.846Z,16.60
2017-07-14T23:26:16.653Z,16.60
2017-07-14T23:28:43.703Z,16.60
2017-07-14T23:31:10.536Z,16.60
2017-07-14T23:33:37.499Z,16.60
2017-07-14T23:36:04.359Z,16.60
2017-07-14T23:38:31.188Z,16.50
2017-07-14T23:40:58.137Z,16.50
2017-07-14T23:43:25.010Z,16.50
2017-07-14T23:45:51.819Z,16.50
2017-07-14T23:48:19.556Z,16.50
2017-07-14T23:50:48.840Z,16.40
2017-07-14T23:53:15.665Z,16.40
2017-07-14T23:55:42.592Z,16.40
2017-07-14T23:58:09.435Z,16.30
